Terminal Aerodrome Forecast
Issued by NWS Shreveport, LA

Home | Current Version | Previous Version | Text Only | Print | Product List | Glossary On
Versions: 1 2 3 4 5 6 7 8 9 10 11 12 13
000
FTUS44 KSHV 312300 RRA
TAFLFK
TAF
KLFK 312344Z 0100/0124 VRB06KT P6SM VCTS SCT013 BKN035CB
      TEMPO 0100/0103 2SM TSRA BR BKN015CB
     FM010300 VRB03KT P6SM SCT015 OVC040
     FM010600 VRB03KT P6SM BKN020
     FM010900 VRB03KT 5SM BR OVC008
     FM011600 31005KT P6SM OVC011
     FM011900 33006KT P6SM OVC017=

USA.gov is the U.S. government's official web portal to all federal, state and local government web resources and services.